createdAt,value
2022-12-03T00:02:00.824Z,97603.09
2022-12-03T00:04:27.345Z,97601.09
2022-12-03T00:06:53.842Z,97602.88
2022-12-03T00:09:20.359Z,97592.50
2022-12-03T00:11:46.745Z,97597.47
2022-12-03T00:14:13.293Z,97593.22
2022-12-03T00:16:39.736Z,97595.72
2022-12-03T00:19:07.681Z,97594.03
2022-12-03T00:21:34.355Z,97588.72
2022-12-03T00:24:00.842Z,97594.88
2022-12-03T00:26:28.022Z,97604.28
2022-12-03T00:28:54.980Z,97595.59
2022-12-03T00:31:23.522Z,97590.41
2022-12-03T00:33:50.628Z,97594.88
2022-12-03T00:36:17.117Z,97594.63
2022-12-03T00:38:43.582Z,97596.50
2022-12-03T00:41:10.117Z,97603.38
2022-12-03T00:43:36.534Z,97601.59
2022-12-03T00:46:03.005Z,97595.59
2022-12-03T00:48:29.562Z,97590.50
2022-12-03T00:50:56.076Z,97597.22
2022-12-03T00:53:22.639Z,97592.03
2022-12-03T00:55:50.619Z,97592.88
2022-12-03T00:58:17.723Z,97593.91
2022-12-03T01:00:44.172Z,97598.41
2022-12-03T01:03:10.753Z,97590.41
2022-12-03T01:05:37.206Z,97593.00
2022-12-03T01:08:03.829Z,97587.81
2022-12-03T01:10:33.025Z,97588.03
2022-12-03T01:12:59.489Z,97592.03
2022-12-03T01:15:25.938Z,97590.28
2022-12-03T01:17:54.197Z,97592.88
2022-12-03T01:20:23.524Z,97595.59
2022-12-03T01:22:50.045Z,97593.00
2022-12-03T01:25:21.341Z,97593.91
2022-12-03T01:28:22.077Z,97596.41
2022-12-03T01:31:10.321Z,97593.78
2022-12-03T01:33:37.558Z,97593.91
2022-12-03T01:36:04.196Z,97592.16
2022-12-03T01:38:30.612Z,97597.22
2022-12-03T01:40:57.081Z,97597.22
2022-12-03T01:43:23.751Z,97600.91
2022-12-03T01:45:50.221Z,97596.50
2022-12-03T01:48:17.018Z,97599.22
2022-12-03T01:50:46.327Z,97597.47
2022-12-03T01:53:15.589Z,97594.03
2022-12-03T01:55:46.947Z,97596.50
2022-12-03T01:58:15.772Z,97590.50
2022-12-03T02:00:45.022Z,97594.88
2022-12-03T02:03:15.149Z,97595.72
2022-12-03T02:05:41.748Z,97597.59
2022-12-03T02:08:26.962Z,97597.47
2022-12-03T02:10:53.474Z,97592.41
2022-12-03T02:13:20.055Z,97588.03
2022-12-03T02:15:46.635Z,97590.50
2022-12-03T02:18:13.201Z,97587.09
2022-12-03T02:20:53.192Z,97590.50
2022-12-03T02:23:34.387Z,97584.50
2022-12-03T02:26:00.913Z,97591.31
2022-12-03T02:28:28.248Z,97581.78
2022-12-03T02:30:54.882Z,97586.97
2022-12-03T02:33:21.357Z,97579.19
2022-12-03T02:35:48.401Z,97584.25
2022-12-03T02:38:21.255Z,97591.91
2022-12-03T02:40:49.229Z,97596.31
2022-12-03T02:43:16.718Z,97587.03
2022-12-03T02:45:44.468Z,97590.94
2022-12-03T02:48:11.507Z,97590.47
2022-12-03T02:50:40.421Z,97580.09
2022-12-03T02:53:08.360Z,97589.31
2022-12-03T02:55:37.390Z,97592.63
2022-12-03T02:58:07.151Z,97590.72
2022-12-03T03:00:35.337Z,97588.03
2022-12-03T03:03:03.585Z,97590.50
2022-12-03T03:05:36.774Z,97592.16
2022-12-03T03:08:04.102Z,97587.81
2022-12-03T03:10:31.709Z,97585.81
2022-12-03T03:12:58.433Z,97588.28
2022-12-03T03:15:25.424Z,97585.94
2022-12-03T03:17:52.019Z,97583.09
2022-12-03T03:20:18.650Z,97588.28
2022-12-03T03:22:45.113Z,97589.22
2022-12-03T03:25:15.343Z,97582.13
2022-12-03T03:27:42.096Z,97593.59
2022-12-03T03:30:09.968Z,97593.72
2022-12-03T03:32:37.160Z,97594.63
2022-12-03T03:35:03.953Z,97329.34
2022-12-03T03:37:30.737Z,97597.22
2022-12-03T03:39:57.392Z,97597.94
2022-12-03T03:42:24.112Z,97593.59
2022-12-03T03:44:50.758Z,97592.75
2022-12-03T03:47:17.977Z,97591.59
2022-12-03T03:49:44.563Z,97590.88
2022-12-03T03:52:11.829Z,97592.53
2022-12-03T03:54:39.327Z,97595.00
2022-12-03T03:57:06.021Z,97601.03
2022-12-03T03:59:32.496Z,97596.06
2022-12-03T04:01:58.954Z,97601.03
2022-12-03T04:04:28.953Z,97600.91
2022-12-03T04:06:55.419Z,97605.38
2022-12-03T04:09:21.875Z,97601.75
2022-12-03T04:12:07.003Z,97605.25
2022-12-03T04:14:33.476Z,97599.16
2022-12-03T04:16:59.971Z,97601.03
2022-12-03T04:19:26.443Z,97594.06
2022-12-03T04:22:11.735Z,97603.38
2022-12-03T04:24:38.182Z,97602.47
2022-12-03T04:27:23.486Z,97595.47
2022-12-03T04:29:50.155Z,97594.69
2022-12-03T04:32:35.347Z,97586.06
2022-12-03T04:35:20.262Z,97587.94
2022-12-03T04:37:46.752Z,97593.00
2022-12-03T04:40:32.240Z,97586.88
2022-12-03T04:42:58.683Z,97585.34
2022-12-03T04:45:25.149Z,97586.16
2022-12-03T04:47:51.643Z,97589.47
2022-12-03T04:50:18.059Z,97580.25
2022-12-03T04:52:44.552Z,97586.41
2022-12-03T04:55:11.051Z,97583.41
2022-12-03T04:57:37.443Z,97571.28
2022-12-03T05:00:04.743Z,97577.91
2022-12-03T05:02:31.187Z,97578.63
2022-12-03T05:04:57.676Z,97574.13
2022-12-03T05:07:24.153Z,97568.91
2022-12-03T05:09:50.738Z,97579.66
2022-12-03T05:12:17.099Z,97579.78
2022-12-03T05:14:43.499Z,97576.22
2022-12-03T05:17:10.058Z,97579.78
2022-12-03T05:19:55.100Z,97583.09
2022-12-03T05:22:21.528Z,97577.41
2022-12-03T05:24:47.947Z,97579.19
2022-12-03T05:27:23.471Z,97579.28
2022-12-03T05:29:50.333Z,97568.91
2022-12-03T05:32:16.796Z,97575.75
2022-12-03T05:34:43.188Z,97577.41
2022-12-03T05:37:09.905Z,97570.34
2022-12-03T05:39:36.364Z,97572.00
2022-12-03T05:42:21.628Z,97572.94
2022-12-03T05:44:48.082Z,97562.09
2022-12-03T05:47:14.587Z,97555.94
2022-12-03T05:49:41.012Z,97551.72
2022-12-03T05:52:07.437Z,97546.84
2022-12-03T05:54:33.982Z,97556.06
2022-12-03T05:57:00.388Z,97554.97
2022-12-03T05:59:27.992Z,97566.19
2022-12-03T06:01:54.432Z,97561.84
2022-12-03T06:04:20.827Z,97565.25
2022-12-03T06:06:47.221Z,97571.41
2022-12-03T06:09:13.595Z,97586.00
2022-12-03T06:11:40.630Z,97583.53
2022-12-03T06:14:07.174Z,97582.72
2022-12-03T06:16:33.734Z,97584.50
2022-12-03T06:19:00.622Z,97580.13
2022-12-03T06:21:28.223Z,97578.47
2022-12-03T06:23:54.666Z,97578.59
2022-12-03T06:26:21.081Z,97575.06
2022-12-03T06:28:49.097Z,97578.69
2022-12-03T06:31:16.057Z,97574.53
2022-12-03T06:33:42.590Z,97576.22
2022-12-03T06:36:09.067Z,97577.13
2022-12-03T06:38:35.514Z,97588.47
2022-12-03T06:41:01.885Z,97590.94
2022-12-03T06:43:30.729Z,97588.47
2022-12-03T06:45:57.155Z,97587.63
2022-12-03T06:48:23.844Z,97584.94
2022-12-03T06:50:50.227Z,97588.47
2022-12-03T06:53:16.722Z,97593.56
2022-12-03T06:55:43.268Z,97586.59
2022-12-03T06:58:09.758Z,97591.78
2022-12-03T07:00:36.400Z,97595.44
2022-12-03T07:03:02.957Z,97604.28
2022-12-03T07:05:29.407Z,97604.28
2022-12-03T07:07:55.997Z,97602.53
2022-12-03T07:10:24.816Z,97600.63
2022-12-03T07:12:51.417Z,97601.56
2022-12-03T07:15:18.676Z,97593.78
2022-12-03T07:17:45.167Z,97602.13
2022-12-03T07:20:12.028Z,97601.81
2022-12-03T07:22:38.510Z,97608.41
2022-12-03T07:25:05.368Z,97600.50
2022-12-03T07:27:31.835Z,97603.00
2022-12-03T07:29:58.306Z,97599.47
2022-12-03T07:32:24.732Z,97603.81
2022-12-03T07:34:51.675Z,97598.41
2022-12-03T07:37:22.869Z,97596.41
2022-12-03T07:39:52.644Z,97595.47
2022-12-03T07:42:19.115Z,97596.31
2022-12-03T07:44:45.482Z,97600.44
2022-12-03T07:47:12.978Z,97596.91
2022-12-03T07:49:39.401Z,97603.38
2022-12-03T07:52:07.227Z,97595.59
2022-12-03T07:54:33.683Z,97596.31
2022-12-03T07:57:01.822Z,97588.41
2022-12-03T07:59:29.017Z,97594.44
2022-12-03T08:01:55.773Z,97588.28
2022-12-03T08:04:23.754Z,97584.06
2022-12-03T08:06:50.315Z,97589.00
2022-12-03T08:09:16.809Z,97590.19
2022-12-03T08:11:45.439Z,97579.59
2022-12-03T08:14:13.581Z,97570.25
2022-12-03T08:16:41.945Z,97569.53
2022-12-03T08:19:11.872Z,97565.53
2022-12-03T08:21:38.980Z,97561.88
2022-12-03T08:24:18.912Z,97569.66
2022-12-03T08:26:46.325Z,97560.69
2022-12-03T08:29:16.214Z,97560.34
2022-12-03T08:31:47.331Z,97560.59
2022-12-03T08:34:17.612Z,97565.66
2022-12-03T08:36:44.321Z,97563.56
2022-12-03T08:39:33.878Z,97558.72
2022-12-03T08:42:30.925Z,97554.69
2022-12-03T08:44:59.999Z,97555.41
2022-12-03T08:47:26.421Z,97555.63
2022-12-03T08:49:58.118Z,97548.56
2022-12-03T08:52:30.189Z,97545.38
2022-12-03T08:54:57.127Z,97559.19
2022-12-03T08:57:23.844Z,97564.03
2022-12-03T08:59:51.567Z,97556.81
2022-12-03T09:02:23.318Z,97564.38
2022-12-03T09:04:55.047Z,97567.94
2022-12-03T09:07:22.146Z,97562.84
2022-12-03T09:09:48.599Z,97562.25
2022-12-03T09:12:15.296Z,97556.81
2022-12-03T09:14:41.669Z,97568.16
2022-12-03T09:17:08.211Z,97561.06
2022-12-03T09:19:34.840Z,97570.75
2022-12-03T09:22:02.045Z,97576.66
2022-12-03T09:24:28.435Z,97561.19
2022-12-03T09:26:54.859Z,97565.31
2022-12-03T09:29:22.227Z,97569.94
2022-12-03T09:31:48.707Z,97559.53
2022-12-03T09:34:15.668Z,97568.28
2022-12-03T09:36:42.090Z,97564.28
2022-12-03T09:39:08.573Z,97565.44
2022-12-03T09:41:35.376Z,97562.84
2022-12-03T09:44:04.790Z,97568.59
2022-12-03T09:46:32.552Z,97555.75
2022-12-03T09:49:00.432Z,97566.16
2022-12-03T09:51:30.252Z,97566.59
2022-12-03T09:53:58.241Z,97568.75
2022-12-03T09:56:24.705Z,97563.53
2022-12-03T09:58:51.246Z,97569.19
2022-12-03T10:01:18.050Z,97562.59
2022-12-03T10:03:49.309Z,97551.25
2022-12-03T10:06:17.809Z,97558.81
2022-12-03T10:08:48.144Z,97558.34
2022-12-03T10:11:15.158Z,97558.81
2022-12-03T10:13:41.868Z,97567.31
2022-12-03T10:16:10.243Z,97560.00
2022-12-03T10:18:41.584Z,97559.88
2022-12-03T10:21:16.928Z,97550.31
2022-12-03T10:23:43.681Z,97526.56
2022-12-03T10:26:10.348Z,97524.34
2022-12-03T10:28:38.695Z,97525.63
2022-12-03T10:31:06.855Z,97552.69
2022-12-03T10:33:44.892Z,97553.97
2022-12-03T10:36:15.606Z,97553.75
2022-12-03T10:38:42.167Z,97555.97
2022-12-03T10:41:28.069Z,97537.19
2022-12-03T10:43:54.546Z,97537.69
2022-12-03T10:46:21.700Z,97536.25
2022-12-03T10:49:07.101Z,97543.22
2022-12-03T10:51:33.611Z,97536.13
2022-12-03T10:54:01.514Z,97526.00
2022-12-03T10:56:28.529Z,97528.09
2022-12-03T10:58:56.049Z,97531.53
2022-12-03T11:01:23.841Z,97517.59
2022-12-03T11:03:51.298Z,97519.72
2022-12-03T11:06:20.163Z,97524.06
2022-12-03T11:08:53.025Z,97525.50
2022-12-03T11:11:27.633Z,97525.25
2022-12-03T11:13:57.764Z,97514.97
2022-12-03T11:16:39.586Z,97497.28
2022-12-03T11:19:06.047Z,97505.41
2022-12-03T11:21:32.514Z,97504.72
2022-12-03T11:23:58.987Z,97495.72
2022-12-03T11:26:37.701Z,97487.00
2022-12-03T11:29:04.931Z,97495.03
2022-12-03T11:31:45.273Z,97484.06
2022-12-03T11:34:18.707Z,97483.25
2022-12-03T11:37:04.063Z,97486.88
2022-12-03T11:39:49.439Z,97483.38
2022-12-03T11:42:30.893Z,97481.44
2022-12-03T11:45:06.583Z,97481.44
2022-12-03T11:47:39.139Z,97479.81
2022-12-03T11:50:18.090Z,97481.69
2022-12-03T11:52:45.189Z,97488.66
2022-12-03T11:55:14.459Z,97483.44
2022-12-03T11:57:43.118Z,97472.34
2022-12-03T12:00:10.362Z,97473.06
2022-12-03T12:02:41.453Z,97462.19
2022-12-03T12:05:14.824Z,97460.53
2022-12-03T12:07:41.880Z,97456.63
2022-12-03T12:10:08.626Z,97464.09
2022-12-03T12:12:39.648Z,97454.78
2022-12-03T12:15:24.845Z,97451.81
2022-12-03T12:17:51.235Z,97446.63
2022-12-03T12:20:24.692Z,97448.28
2022-12-03T12:22:52.513Z,97449.22
2022-12-03T12:25:36.600Z,97448.75
2022-12-03T12:28:03.057Z,97452.78
2022-12-03T12:30:29.675Z,97449.34
2022-12-03T12:33:05.470Z,97442.06
2022-12-03T12:35:32.972Z,97447.72
2022-12-03T12:38:11.333Z,97442.66
2022-12-03T12:40:39.294Z,97459.53
2022-12-03T12:43:14.431Z,97442.31
2022-12-03T12:45:43.727Z,97437.69
2022-12-03T12:48:10.197Z,97431.56
2022-12-03T12:50:37.701Z,97430.78
2022-12-03T12:53:19.432Z,97431.25
2022-12-03T12:55:46.069Z,97430.06
2022-12-03T12:58:15.987Z,97430.28
2022-12-03T13:00:42.652Z,97424.84
2022-12-03T13:03:11.857Z,97425.91
2022-12-03T13:05:43.065Z,97422.25
2022-12-03T13:08:18.790Z,97429.31
2022-12-03T13:10:45.339Z,97419.31
2022-12-03T13:13:17.440Z,97193.88
2022-12-03T13:15:43.832Z,97423.91
2022-12-03T13:18:22.606Z,97424.63
2022-12-03T13:20:49.300Z,97412.44
2022-12-03T13:23:29.998Z,97411.50
2022-12-03T13:26:02.256Z,97411.84
2022-12-03T13:28:36.140Z,97411.16
2022-12-03T13:31:18.083Z,97412.56
2022-12-03T13:33:44.731Z,97403.94
2022-12-03T13:36:13.383Z,97418.47
2022-12-03T13:38:39.899Z,97413.03
2022-12-03T13:41:32.529Z,97412.19
2022-12-03T13:43:59.719Z,97402.50
2022-12-03T13:46:28.515Z,97401.47
2022-12-03T13:49:00.182Z,97400.88
2022-12-03T13:51:30.689Z,97403.47
2022-12-03T13:53:58.057Z,97402.44
2022-12-03T13:56:32.102Z,97402.31
2022-12-03T13:59:00.205Z,97403.47
2022-12-03T14:01:28.037Z,97405.28
2022-12-03T14:03:54.843Z,97408.72
2022-12-03T14:06:21.292Z,97405.41
2022-12-03T14:08:47.766Z,97403.03
2022-12-03T14:11:36.598Z,97402.72
2022-12-03T14:14:03.143Z,97403.38
2022-12-03T14:16:29.643Z,97399.88
2022-12-03T14:18:56.132Z,97408.38
2022-12-03T14:21:22.557Z,97408.00
2022-12-03T14:23:49.011Z,97404.84
2022-12-03T14:26:18.342Z,97406.84
2022-12-03T14:28:44.861Z,97401.28
2022-12-03T14:31:11.497Z,97408.59
2022-12-03T14:33:38.041Z,97399.03
2022-12-03T14:36:04.587Z,97404.38
2022-12-03T14:38:31.044Z,97399.03
2022-12-03T14:40:57.432Z,97400.47
2022-12-03T14:43:23.891Z,97394.81
2022-12-03T14:45:50.651Z,97401.66
2022-12-03T14:48:20.592Z,97393.75
2022-12-03T14:50:47.056Z,97395.16
2022-12-03T14:53:13.568Z,97389.84
2022-12-03T14:55:40.130Z,97388.91
2022-12-03T14:58:06.613Z,97391.50
2022-12-03T15:00:33.033Z,97383.94
2022-12-03T15:02:59.864Z,97391.50
2022-12-03T15:05:28.894Z,97386.19
2022-12-03T15:07:57.396Z,97379.22
2022-12-03T15:10:23.908Z,97388.09
2022-12-03T15:12:50.345Z,97385.25
2022-12-03T15:15:16.799Z,97386.09
2022-12-03T15:17:45.629Z,97381.47
2022-12-03T15:20:12.778Z,97392.78
2022-12-03T15:22:39.202Z,97384.88
2022-12-03T15:25:07.581Z,97392.41
2022-12-03T15:27:34.019Z,97392.31
2022-12-03T15:30:00.487Z,97391.50
2022-12-03T15:32:26.969Z,97391.03
2022-12-03T15:34:53.404Z,97388.56
2022-12-03T15:37:19.912Z,97381.94
2022-12-03T15:39:48.633Z,97388.09
2022-12-03T15:42:15.313Z,97372.16
2022-12-03T15:44:41.805Z,97367.66
2022-12-03T15:47:08.291Z,97372.84
2022-12-03T15:49:34.718Z,97376.88
2022-12-03T15:52:01.188Z,97387.13
2022-12-03T15:54:27.674Z,97386.41
2022-12-03T15:56:57.206Z,97385.72
2022-12-03T15:59:24.235Z,97383.81
2022-12-03T16:01:53.801Z,97384.78
2022-12-03T16:04:20.344Z,97382.44
2022-12-03T16:06:46.842Z,97387.25
2022-12-03T16:09:13.245Z,97373.69
2022-12-03T16:11:39.720Z,97377.25
2022-12-03T16:14:06.208Z,97382.31
2022-12-03T16:16:32.657Z,97376.88
2022-12-03T16:18:59.551Z,97376.41
2022-12-03T16:21:27.222Z,97383.47
2022-12-03T16:23:54.168Z,97373.22
2022-12-03T16:26:20.892Z,97380.28
2022-12-03T16:28:48.259Z,97372.63
2022-12-03T16:45:53.829Z,97306.34
2022-12-03T16:48:20.512Z,97363.16
2022-12-03T16:50:47.126Z,97366.34
2022-12-03T16:53:14.665Z,97372.38
2022-12-03T16:55:41.361Z,97318.03
2022-12-03T16:58:07.963Z,97160.41
2022-12-03T17:00:34.637Z,97359.63
2022-12-03T17:03:01.961Z,97189.03
2022-12-03T17:05:28.699Z,97211.75
2022-12-03T17:07:55.368Z,97192.81
2022-12-03T17:10:22.061Z,97104.50
2022-12-03T17:13:08.824Z,97334.88
2022-12-03T17:15:35.896Z,97364.59
2022-12-03T17:18:05.953Z,97382.53
2022-12-03T17:20:33.805Z,97183.25
2022-12-03T17:23:01.442Z,97253.00
2022-12-03T17:25:28.332Z,97190.19
2022-12-03T17:27:54.913Z,97399.75
2022-12-03T17:30:21.664Z,97347.06
2022-12-03T17:32:50.345Z,97143.00
2022-12-03T17:35:17.861Z,97371.69
2022-12-03T17:37:44.456Z,97244.16
2022-12-03T17:40:15.097Z,97363.81
2022-12-03T17:42:41.656Z,97361.41
2022-12-03T17:45:09.034Z,97371.78
2022-12-03T17:47:35.869Z,97257.59
2022-12-03T17:50:02.455Z,97369.66
2022-12-03T17:52:29.049Z,97368.50
2022-12-03T17:55:10.974Z,97355.53
2022-12-03T17:57:38.679Z,97364.59
2022-12-03T18:00:09.532Z,97365.69
2022-12-03T18:02:39.504Z,97366.84
2022-12-03T18:05:06.626Z,97367.19
2022-12-03T18:07:33.384Z,97272.56
2022-12-03T18:10:00.121Z,97365.78
2022-12-03T18:12:26.671Z,97355.41
2022-12-03T18:14:55.568Z,97354.34
2022-12-03T18:17:23.459Z,97180.66
2022-12-03T18:19:50.417Z,97378.28
2022-12-03T18:22:17.275Z,97274.66
2022-12-03T18:24:46.182Z,97356.38
2022-12-03T18:27:15.089Z,97359.66
2022-12-03T18:29:41.641Z,97190.00
2022-12-03T18:32:27.209Z,97352.69
2022-12-03T18:34:55.270Z,97201.06
2022-12-03T18:37:23.609Z,97074.00
2022-12-03T18:39:50.153Z,97340.06
2022-12-03T18:42:21.947Z,97340.06
2022-12-03T18:44:50.284Z,97335.81
2022-12-03T18:47:20.052Z,97329.13
2022-12-03T18:49:46.720Z,97327.94
2022-12-03T18:52:15.375Z,97129.69
2022-12-03T18:54:42.555Z,97333.94
2022-12-03T18:57:09.250Z,97286.34
2022-12-03T18:59:37.249Z,97317.91
2022-12-03T19:02:05.314Z,97141.09
2022-12-03T19:04:32.093Z,97326.03
2022-12-03T19:06:58.766Z,97138.03
2022-12-03T19:09:25.404Z,97152.06
2022-12-03T19:11:52.020Z,97329.06
2022-12-03T19:14:18.980Z,97324.84
2022-12-03T19:16:45.716Z,97335.81
2022-12-03T19:19:12.445Z,97329.00
2022-12-03T19:21:39.145Z,97110.03
2022-12-03T19:26:55.275Z,97326.28
2022-12-03T19:29:25.021Z,97151.00
2022-12-03T19:31:52.146Z,97169.50
2022-12-03T19:34:18.996Z,97310.81
2022-12-03T19:36:46.293Z,97310.25
2022-12-03T19:39:12.930Z,97306.72
2022-12-03T19:41:41.008Z,97249.94
2022-12-03T19:44:10.870Z,97289.19
2022-12-03T19:46:37.732Z,97125.22
2022-12-03T19:49:04.825Z,97324.13
2022-12-03T19:51:35.124Z,97267.13
2022-12-03T19:54:07.048Z,97314.00
2022-12-03T19:56:33.592Z,97313.75
2022-12-03T19:59:00.168Z,97203.16
2022-12-03T20:01:29.059Z,97325.81
2022-12-03T20:03:57.687Z,97168.91
2022-12-03T20:06:27.134Z,97327.31
2022-12-03T20:09:06.913Z,97157.25
2022-12-03T20:11:35.059Z,97318.69
2022-12-03T20:14:07.585Z,97323.09
2022-12-03T20:16:35.069Z,97316.34
2022-12-03T20:19:04.577Z,97329.31
2022-12-03T20:21:33.378Z,97330.03
2022-12-03T20:24:00.774Z,97322.84
2022-12-03T20:26:28.372Z,97318.09
2022-12-03T20:28:55.988Z,97219.53
2022-12-03T20:31:25.307Z,97308.56
2022-12-03T20:33:54.734Z,97311.03
2022-12-03T20:36:22.770Z,97299.47
2022-12-03T20:38:57.143Z,97023.81
2022-12-03T20:41:24.031Z,97293.44
2022-12-03T20:43:51.059Z,97196.06
2022-12-03T20:46:31.352Z,97289.09
2022-12-03T20:48:58.711Z,97284.94
2022-12-03T20:51:28.485Z,97293.56
2022-12-03T20:53:56.180Z,97289.09
2022-12-03T20:56:26.701Z,97286.00
2022-12-03T20:58:53.952Z,97294.50
2022-12-03T21:01:23.616Z,97287.41
2022-12-03T21:03:51.536Z,97281.53
2022-12-03T21:06:19.176Z,97235.00
2022-12-03T21:08:46.253Z,97209.50
2022-12-03T21:11:19.061Z,97251.34
2022-12-03T21:13:46.659Z,97213.59
2022-12-03T21:16:34.111Z,97270.34
2022-12-03T21:19:07.265Z,97194.25
2022-12-03T21:21:35.086Z,97096.34
2022-12-03T21:24:01.620Z,97267.09
2022-12-03T21:26:28.345Z,97269.56
2022-12-03T21:28:55.056Z,97260.84
2022-12-03T21:31:25.200Z,97263.31
2022-12-03T21:33:55.952Z,97261.91
2022-12-03T21:36:23.331Z,97265.09
2022-12-03T21:38:50.117Z,97268.78
2022-12-03T21:41:17.210Z,97244.59
2022-12-03T21:43:44.329Z,97205.34
2022-12-03T21:47:09.145Z,97256.41
2022-12-03T21:49:01.658Z,97194.72
2022-12-03T21:51:28.230Z,97165.53
2022-12-03T21:53:54.862Z,97128.56
2022-12-03T21:56:21.628Z,97203.72
2022-12-03T21:58:48.281Z,97264.03
2022-12-03T22:01:18.760Z,97138.06
2022-12-03T22:03:45.695Z,97256.13
2022-12-03T22:06:13.163Z,97123.84
2022-12-03T22:08:39.868Z,97178.78
2022-12-03T22:11:09.157Z,97151.22
2022-12-03T22:13:38.782Z,97260.22
2022-12-03T22:16:07.326Z,97241.34
2022-12-03T22:18:34.386Z,97152.19
2022-12-03T22:21:05.871Z,97239.91
2022-12-03T22:23:32.702Z,97230.22
2022-12-03T22:26:01.599Z,97228.31
2022-12-03T22:28:28.714Z,97195.63
2022-12-03T22:30:55.535Z,97131.09
2022-12-03T22:33:22.871Z,97229.47
2022-12-03T22:36:00.355Z,97228.63
2022-12-03T22:38:29.345Z,97239.72
2022-12-03T22:40:56.130Z,97165.56
2022-12-03T22:43:23.088Z,97214.59
2022-12-03T22:45:54.326Z,97247.34
2022-12-03T22:48:22.211Z,97214.94
2022-12-03T22:50:50.045Z,97206.81
2022-12-03T22:53:17.586Z,97211.88
2022-12-03T22:55:57.733Z,97207.59
2022-12-03T22:58:25.041Z,97073.72
2022-12-03T23:00:52.574Z,97078.38
2022-12-03T23:03:19.444Z,97058.25
2022-12-03T23:05:46.477Z,97071.22
2022-12-03T23:08:19.409Z,96947.94
2022-12-03T23:10:48.349Z,97224.59
2022-12-03T23:13:15.846Z,96999.28
2022-12-03T23:15:52.046Z,97221.59
2022-12-03T23:18:19.257Z,97214.06
2022-12-03T23:20:49.120Z,97120.41
2022-12-03T23:23:16.356Z,97216.53
2022-12-03T23:25:44.124Z,97213.81
2022-12-03T23:28:10.932Z,97027.97
2022-12-03T23:30:38.608Z,97212.63
2022-12-03T23:33:06.736Z,97198.13
2022-12-03T23:35:33.404Z,96977.69
2022-12-03T23:38:00.031Z,97115.19
2022-12-03T23:40:27.418Z,97195.97
2022-12-03T23:42:54.012Z,97063.31
2022-12-03T23:45:20.698Z,97186.38
2022-12-03T23:47:47.302Z,97081.47
2022-12-03T23:50:14.314Z,97040.59
2022-12-03T23:52:40.876Z,97182.72
2022-12-03T23:55:07.736Z,97193.59
2022-12-03T23:57:34.880Z,96993.44
